createdAt,value
2019-04-14T00:00:03.432Z,11.60
2019-04-14T00:02:38.213Z,11.50
2019-04-14T00:05:10.387Z,11.60
2019-04-14T00:07:40.576Z,11.70
2019-04-14T00:10:13.813Z,11.80
2019-04-14T00:12:44.773Z,11.80
2019-04-14T00:15:25.944Z,11.70
2019-04-14T00:17:46.221Z,11.60
2019-04-14T00:20:35.889Z,11.50
2019-04-14T00:23:06.587Z,11.50
2019-04-14T00:25:37.028Z,11.40
2019-04-14T00:28:07.342Z,11.40
2019-04-14T00:30:38.249Z,11.30
2019-04-14T00:33:10.631Z,11.30
2019-04-14T00:35:42.755Z,11.30
2019-04-14T00:38:17.496Z,11.30
2019-04-14T00:41:05.255Z,11.20
2019-04-14T00:43:46.085Z,11.10
2019-04-14T00:46:21.192Z,11.20
2019-04-14T00:48:51.789Z,11.20
2019-04-14T00:51:22.130Z,11.20
2019-04-14T00:53:51.851Z,11.20
2019-04-14T00:56:21.571Z,11.20
2019-04-14T00:58:51.836Z,11.10
2019-04-14T01:01:21.943Z,11.10
2019-04-14T01:03:52.563Z,11.10
2019-04-14T01:06:22.948Z,11.00
2019-04-14T01:08:53.359Z,11.00
2019-04-14T01:11:23.193Z,11.10
2019-04-14T01:14:12.637Z,11.10
2019-04-14T01:16:42.997Z,11.00
2019-04-14T01:19:13.381Z,10.90
2019-04-14T01:21:43.616Z,10.90
2019-04-14T01:24:14.251Z,10.90
2019-04-14T01:26:44.313Z,11.00
2019-04-14T01:29:14.368Z,11.00
2019-04-14T01:31:44.690Z,11.20
2019-04-14T01:34:15.160Z,11.20
2019-04-14T01:36:45.339Z,11.20
2019-04-14T01:39:15.450Z,11.20
2019-04-14T01:41:45.633Z,11.20
2019-04-14T01:44:15.630Z,11.20
2019-04-14T01:46:45.664Z,11.10
2019-04-14T01:49:15.747Z,11.20
2019-04-14T01:51:47.004Z,11.20
2019-04-14T01:54:30.596Z,11.10
2019-04-14T01:57:08.784Z,11.00
2019-04-14T01:59:39.138Z,11.00
2019-04-14T02:02:10.448Z,10.90
2019-04-14T02:04:40.377Z,11.00
2019-04-14T02:07:10.247Z,10.90
2019-04-14T02:09:40.145Z,10.80
2019-04-14T02:12:10.570Z,10.80
2019-04-14T02:14:40.831Z,10.90
2019-04-14T02:17:11.235Z,10.90
2019-04-14T02:19:41.668Z,11.00
2019-04-14T02:22:11.698Z,11.00
2019-04-14T02:24:41.747Z,10.90
2019-04-14T02:27:12.060Z,10.90
2019-04-14T02:29:42.896Z,10.80
2019-04-14T02:35:13.565Z,10.80
2019-04-14T02:37:44.873Z,10.80
2019-04-14T02:42:54.204Z,10.70
2019-04-14T02:45:19.872Z,10.70
2019-04-14T02:50:17.869Z,10.60
2019-04-14T02:55:19.386Z,10.50
2019-04-14T02:57:57.306Z,10.50
2019-04-14T03:00:25.871Z,10.60
2019-04-14T03:02:48.236Z,10.60
2019-04-14T03:05:26.480Z,10.60
2019-04-14T03:08:02.209Z,10.60
2019-04-14T03:10:32.009Z,10.60
2019-04-14T03:13:05.632Z,10.60
2019-04-14T03:21:03.991Z,10.60
2019-04-14T03:26:11.429Z,10.40
2019-04-14T03:28:51.415Z,10.40
2019-04-14T03:41:31.561Z,10.40
2019-04-14T03:44:03.227Z,10.40
2019-04-14T03:46:41.616Z,10.40
2019-04-14T03:49:06.277Z,10.30
2019-04-14T03:54:06.248Z,10.30
2019-04-14T03:56:33.663Z,10.30
2019-04-14T03:59:04.224Z,10.30
2019-04-14T04:01:34.549Z,10.40
2019-04-14T04:04:05.346Z,10.40
2019-04-14T04:06:35.655Z,10.40
2019-04-14T04:09:08.371Z,10.30
2019-04-14T04:11:39.024Z,10.30
2019-04-14T04:14:09.657Z,10.20
2019-04-14T04:16:59.548Z,10.20
2019-04-14T04:19:31.568Z,10.20
2019-04-14T04:22:19.349Z,10.30
2019-04-14T04:24:56.877Z,10.50
2019-04-14T04:27:35.157Z,10.60
2019-04-14T04:30:08.678Z,10.60
2019-04-14T04:32:49.435Z,10.50
2019-04-14T04:35:26.567Z,10.50
2019-04-14T04:38:00.883Z,10.40
2019-04-14T04:40:33.221Z,10.50
2019-04-14T04:43:03.823Z,10.60
2019-04-14T04:45:34.144Z,10.60
2019-04-14T04:48:04.566Z,10.50
2019-04-14T04:50:34.698Z,10.50
2019-04-14T04:53:04.810Z,10.50
2019-04-14T04:55:35.159Z,10.40
2019-04-14T04:58:05.644Z,10.40
2019-04-14T05:00:35.400Z,10.40
2019-04-14T05:03:05.721Z,10.50
2019-04-14T05:06:00.382Z,10.70
2019-04-14T05:08:30.448Z,10.80
2019-04-14T05:11:05.413Z,10.80
2019-04-14T05:13:36.624Z,10.70
2019-04-14T05:16:06.902Z,10.80
2019-04-14T05:18:37.517Z,10.70
2019-04-14T05:21:08.175Z,10.60
2019-04-14T05:23:38.833Z,10.60
2019-04-14T05:26:09.203Z,10.50
2019-04-14T05:28:39.652Z,10.50
2019-04-14T05:31:09.854Z,10.50
2019-04-14T05:33:40.441Z,10.40
2019-04-14T05:36:10.692Z,10.40
2019-04-14T05:38:40.804Z,10.40
2019-04-14T05:41:11.505Z,10.50
2019-04-14T05:43:49.752Z,10.40
2019-04-14T05:46:12.593Z,10.50
2019-04-14T05:48:42.547Z,10.40
2019-04-14T05:51:13.062Z,10.50
2019-04-14T05:53:43.809Z,10.40
2019-04-14T05:56:14.361Z,10.60
2019-04-14T05:58:44.740Z,10.70
2019-04-14T06:01:14.619Z,10.80
2019-04-14T06:03:45.293Z,10.90
2019-04-14T06:06:15.140Z,11.00
2019-04-14T06:08:45.168Z,11.20
2019-04-14T06:11:14.777Z,11.30
2019-04-14T06:13:44.425Z,11.30
2019-04-14T06:16:14.235Z,11.40
2019-04-14T06:18:44.038Z,11.50
2019-04-14T06:21:13.724Z,11.60
2019-04-14T06:23:43.381Z,11.60
2019-04-14T06:26:13.153Z,11.60
2019-04-14T06:28:42.814Z,11.60
2019-04-14T06:31:16.945Z,11.50
2019-04-14T06:33:48.346Z,11.40
2019-04-14T06:36:19.619Z,11.40
2019-04-14T06:38:50.939Z,11.40
2019-04-14T06:41:20.986Z,11.40
2019-04-14T06:43:50.630Z,11.40
2019-04-14T06:46:20.430Z,11.40
2019-04-14T06:48:50.030Z,11.40
2019-04-14T06:51:19.648Z,11.50
2019-04-14T06:53:49.275Z,11.70
2019-04-14T06:56:19.036Z,11.80
2019-04-14T06:58:48.654Z,11.70
2019-04-14T07:01:18.472Z,11.80
2019-04-14T07:03:48.161Z,11.80
2019-04-14T07:06:17.900Z,11.80
2019-04-14T07:08:47.924Z,12.00
2019-04-14T07:11:17.645Z,12.00
2019-04-14T07:13:48.174Z,11.90
2019-04-14T07:16:18.024Z,12.00
2019-04-14T07:18:47.746Z,12.00
2019-04-14T07:21:36.755Z,11.90
2019-04-14T07:24:25.742Z,11.70
2019-04-14T07:26:55.369Z,11.60
2019-04-14T07:29:26.631Z,11.50
2019-04-14T07:34:54.044Z,11.40
2019-04-14T07:37:28.357Z,11.60
2019-04-14T07:39:59.919Z,11.60
2019-04-14T07:42:34.193Z,11.60
2019-04-14T07:45:05.789Z,11.50
2019-04-14T07:47:53.466Z,11.40
2019-04-14T07:50:30.932Z,11.40
2019-04-14T07:53:18.750Z,11.40
2019-04-14T07:56:08.486Z,11.50
2019-04-14T07:58:56.267Z,11.40
2019-04-14T08:01:30.432Z,11.50
2019-04-14T08:04:07.754Z,11.50
2019-04-14T08:06:38.517Z,11.80
2019-04-14T08:09:08.223Z,11.90
2019-04-14T08:11:37.992Z,12.00
2019-04-14T08:14:07.661Z,12.20
2019-04-14T08:16:38.506Z,12.50
2019-04-14T08:19:08.743Z,12.50
2019-04-14T08:21:39.635Z,12.60
2019-04-14T08:24:09.340Z,12.70
2019-04-14T08:26:39.121Z,12.70
2019-04-14T08:29:10.557Z,12.80
2019-04-14T08:31:43.253Z,12.70
2019-04-14T08:34:18.315Z,12.70
2019-04-14T08:36:52.104Z,12.80
2019-04-14T08:39:27.315Z,12.70
2019-04-14T08:42:15.080Z,12.60
2019-04-14T08:44:46.510Z,12.20
2019-04-14T08:47:34.460Z,12.30
2019-04-14T08:50:07.493Z,12.60
2019-04-14T08:52:39.448Z,12.60
2019-04-14T08:55:28.690Z,12.60
2019-04-14T08:58:12.083Z,12.70
2019-04-14T09:00:52.166Z,12.80
2019-04-14T09:03:26.273Z,12.90
2019-04-14T09:06:06.502Z,12.60
2019-04-14T09:08:37.912Z,12.40
2019-04-14T09:11:12.161Z,12.30
2019-04-14T09:13:41.861Z,12.30
2019-04-14T09:16:11.628Z,12.30
2019-04-14T09:18:41.345Z,12.30
2019-04-14T09:21:11.030Z,12.40
2019-04-14T09:23:40.674Z,12.50
2019-04-14T09:26:10.331Z,12.60
2019-04-14T09:28:39.947Z,12.80
2019-04-14T09:31:09.575Z,13.10
2019-04-14T09:33:39.214Z,13.30
2019-04-14T09:36:08.874Z,13.50
2019-04-14T09:38:38.497Z,13.70
2019-04-14T09:41:08.134Z,14.00
2019-04-14T09:43:37.769Z,14.30
2019-04-14T09:46:07.480Z,14.50
2019-04-14T09:48:37.118Z,14.50
2019-04-14T09:51:06.892Z,14.50
2019-04-14T09:53:36.572Z,14.20
2019-04-14T09:56:06.307Z,14.10
2019-04-14T09:58:35.954Z,14.00
2019-04-14T10:01:08.987Z,13.80
2019-04-14T10:03:37.449Z,13.70
2019-04-14T10:06:07.544Z,13.70
2019-04-14T10:08:37.422Z,13.60
2019-04-14T10:11:07.126Z,13.40
2019-04-14T10:13:36.770Z,13.70
2019-04-14T10:16:06.513Z,13.70
2019-04-14T10:18:36.306Z,13.60
2019-04-14T10:21:16.805Z,13.50
2019-04-14T10:23:39.430Z,13.60
2019-04-14T10:26:08.569Z,13.60
2019-04-14T10:28:38.413Z,13.50
2019-04-14T10:31:07.984Z,13.60
2019-04-14T10:33:37.658Z,13.60
2019-04-14T10:36:07.288Z,13.50
2019-04-14T10:38:37.015Z,13.30
2019-04-14T10:41:06.938Z,13.10
2019-04-14T10:43:56.018Z,13.10
2019-04-14T10:46:25.712Z,13.10
2019-04-14T10:49:14.752Z,13.10
2019-04-14T10:51:44.513Z,12.90
2019-04-14T10:54:14.182Z,12.90
2019-04-14T10:56:43.822Z,12.80
2019-04-14T10:59:13.485Z,12.70
2019-04-14T11:01:43.103Z,12.70
2019-04-14T11:04:13.063Z,12.70
2019-04-14T11:07:03.737Z,12.70
2019-04-14T11:09:33.440Z,12.60
2019-04-14T11:12:03.330Z,12.70
2019-04-14T11:14:32.974Z,12.90
2019-04-14T11:17:02.819Z,12.90
2019-04-14T11:19:32.508Z,13.00
2019-04-14T11:22:02.636Z,13.00
2019-04-14T11:24:32.450Z,12.90
2019-04-14T11:27:02.500Z,13.00
2019-04-14T11:29:32.273Z,13.20
2019-04-14T11:32:06.569Z,13.30
2019-04-14T11:34:37.920Z,13.50
2019-04-14T11:37:21.456Z,13.50
2019-04-14T11:39:51.353Z,13.50
2019-04-14T11:42:21.345Z,13.50
2019-04-14T11:44:51.407Z,13.60
2019-04-14T11:47:21.340Z,13.70
2019-04-14T11:49:51.275Z,14.00
2019-04-14T11:52:21.036Z,14.10
2019-04-14T11:54:50.949Z,14.00
2019-04-14T11:57:20.834Z,14.20
2019-04-14T11:59:52.389Z,14.40
2019-04-14T12:02:23.905Z,14.50
2019-04-14T12:04:55.236Z,14.50
2019-04-14T12:07:35.898Z,14.60
2019-04-14T12:10:08.761Z,14.80
2019-04-14T12:12:38.798Z,15.10
2019-04-14T12:15:08.651Z,15.20
2019-04-14T12:17:38.384Z,15.20
2019-04-14T12:20:09.458Z,15.30
2019-04-14T12:22:39.293Z,15.30
2019-04-14T12:25:09.065Z,15.30
2019-04-14T12:27:39.731Z,15.50
2019-04-14T12:30:11.513Z,15.70
2019-04-14T12:32:42.001Z,15.60
2019-04-14T12:35:13.337Z,15.80
2019-04-14T12:37:43.071Z,15.90
2019-04-14T12:40:13.270Z,15.80
2019-04-14T12:42:47.128Z,15.80
2019-04-14T12:45:35.111Z,15.90
2019-04-14T12:48:12.528Z,16.00
2019-04-14T12:50:43.830Z,16.00
2019-04-14T12:53:13.454Z,16.10
2019-04-14T12:55:43.168Z,16.10
2019-04-14T12:58:14.601Z,16.20
2019-04-14T13:00:46.016Z,16.20
2019-04-14T13:03:15.704Z,16.10
2019-04-14T13:05:45.412Z,15.90
2019-04-14T13:08:15.191Z,15.90
2019-04-14T13:10:45.158Z,16.00
2019-04-14T13:13:14.794Z,16.20
2019-04-14T13:15:44.658Z,16.30
2019-04-14T13:18:14.515Z,16.40
2019-04-14T13:20:44.168Z,16.50
2019-04-14T13:23:14.045Z,16.70
2019-04-14T13:25:43.728Z,16.60
2019-04-14T13:28:13.522Z,16.70
2019-04-14T13:30:44.285Z,16.80
2019-04-14T13:33:13.917Z,16.90
2019-04-14T13:35:45.290Z,17.00
2019-04-14T13:38:15.186Z,17.00
2019-04-14T13:40:44.812Z,17.10
2019-04-14T13:43:14.536Z,17.20
2019-04-14T13:45:44.176Z,17.20
2019-04-14T13:48:13.818Z,17.40
2019-04-14T13:50:43.459Z,17.40
2019-04-14T13:53:13.382Z,17.40
2019-04-14T13:55:43.177Z,17.40
2019-04-14T13:58:12.878Z,17.50
2019-04-14T14:00:42.505Z,17.50
2019-04-14T14:03:12.281Z,17.40
2019-04-14T14:05:43.625Z,17.60
2019-04-14T14:08:13.460Z,17.80
2019-04-14T14:10:43.164Z,17.80
2019-04-14T14:13:20.034Z,17.90
2019-04-14T14:16:06.518Z,17.90
2019-04-14T14:18:40.475Z,17.90
2019-04-14T14:21:12.132Z,18.00
2019-04-14T14:24:00.199Z,18.00
2019-04-14T14:26:31.564Z,17.90
2019-04-14T14:29:01.170Z,17.80
2019-04-14T14:31:30.895Z,17.80
2019-04-14T14:34:00.526Z,17.80
2019-04-14T14:36:30.219Z,17.80
2019-04-14T14:39:00.000Z,17.90
2019-04-14T14:41:29.638Z,17.80
2019-04-14T14:43:59.300Z,17.90
2019-04-14T14:46:46.745Z,18.00
2019-04-14T14:49:18.012Z,17.90
2019-04-14T14:51:52.066Z,17.70
2019-04-14T14:54:21.908Z,17.70
2019-04-14T14:56:51.647Z,17.80
2019-04-14T15:01:50.631Z,17.70
2019-04-14T15:04:20.469Z,17.70
2019-04-14T15:06:50.059Z,17.70
2019-04-14T15:09:20.015Z,17.80
2019-04-14T15:11:49.947Z,17.80
2019-04-14T15:14:19.789Z,17.70
2019-04-14T15:16:49.569Z,17.80
2019-04-14T15:19:19.276Z,18.00
2019-04-14T15:21:48.978Z,18.00
2019-04-14T15:24:18.773Z,18.00
2019-04-14T15:26:48.431Z,17.90
2019-04-14T15:29:18.060Z,17.60
2019-04-14T15:31:47.705Z,17.40
2019-04-14T15:34:17.552Z,17.20
2019-04-14T15:36:47.412Z,17.20
2019-04-14T15:39:17.307Z,17.20
2019-04-14T15:41:47.215Z,17.20
2019-04-14T15:44:17.059Z,17.30
2019-04-14T15:46:46.924Z,17.80
2019-04-14T15:49:16.577Z,17.90
2019-04-14T15:51:46.394Z,18.10
2019-04-14T15:54:16.388Z,18.10
2019-04-14T15:57:06.114Z,18.30
2019-04-14T15:59:43.555Z,18.40
2019-04-14T16:02:17.399Z,18.30
2019-04-14T16:04:55.132Z,18.20
2019-04-14T16:07:32.814Z,18.10
2019-04-14T16:10:07.771Z,18.10
2019-04-14T16:12:41.917Z,18.10
2019-04-14T16:15:16.444Z,18.10
2019-04-14T16:17:47.864Z,18.10
2019-04-14T16:20:19.468Z,18.00
2019-04-14T16:22:49.513Z,17.80
2019-04-14T16:25:19.894Z,17.50
2019-04-14T16:28:00.572Z,17.30
2019-04-14T16:30:32.029Z,17.20
2019-04-14T16:33:15.502Z,17.30
2019-04-14T16:35:46.652Z,17.50
2019-04-14T16:38:16.364Z,17.60
2019-04-14T16:40:46.183Z,17.70
2019-04-14T16:43:15.841Z,17.80
2019-04-14T16:45:45.444Z,17.80
2019-04-14T16:48:15.154Z,17.80
2019-04-14T16:50:44.948Z,17.90
2019-04-14T16:53:22.311Z,18.00
2019-04-14T16:55:53.615Z,17.90
2019-04-14T16:58:27.809Z,17.80
2019-04-14T17:01:01.974Z,17.60
2019-04-14T17:03:31.673Z,17.60
2019-04-14T17:06:01.316Z,17.50
2019-04-14T17:08:31.277Z,17.50
2019-04-14T17:11:01.179Z,17.50
2019-04-14T17:13:32.597Z,17.30
2019-04-14T17:16:06.725Z,16.80
2019-04-14T17:18:52.892Z,16.30
2019-04-14T17:21:33.217Z,16.20
2019-04-14T17:24:20.960Z,16.00
2019-04-14T17:26:52.452Z,16.00
2019-04-14T17:29:23.745Z,16.00
2019-04-14T17:32:13.188Z,16.00
2019-04-14T17:35:01.229Z,16.00
2019-04-14T17:37:44.653Z,16.20
2019-04-14T17:40:22.752Z,16.40
2019-04-14T17:43:06.006Z,16.80
2019-04-14T17:45:37.320Z,17.10
2019-04-14T17:48:08.919Z,17.40
2019-04-14T17:50:41.233Z,17.50
2019-04-14T17:53:18.435Z,17.70
2019-04-14T17:56:08.275Z,17.70
2019-04-14T17:58:39.917Z,17.70
2019-04-14T18:01:27.583Z,17.70
2019-04-14T18:03:58.916Z,17.70
2019-04-14T18:06:30.286Z,17.70
2019-04-14T18:09:10.552Z,17.60
2019-04-14T18:11:44.925Z,17.60
2019-04-14T18:14:16.354Z,17.60
2019-04-14T18:16:56.825Z,17.60
2019-04-14T18:19:36.766Z,17.60
2019-04-14T18:22:06.777Z,17.40
2019-04-14T18:24:42.545Z,17.30
2019-04-14T18:27:08.025Z,17.10
2019-04-14T18:29:51.369Z,17.00
2019-04-14T18:32:37.693Z,17.00
2019-04-14T18:35:12.322Z,16.90
2019-04-14T18:37:43.745Z,16.80
2019-04-14T18:40:27.109Z,16.70
2019-04-14T18:43:07.140Z,16.70
2019-04-14T18:45:38.429Z,16.60
2019-04-14T18:48:12.784Z,16.60
2019-04-14T18:51:00.412Z,16.50
2019-04-14T18:53:31.867Z,16.40
2019-04-14T18:56:03.134Z,16.40
2019-04-14T18:58:43.116Z,16.40
2019-04-14T19:01:14.511Z,16.30
2019-04-14T19:03:44.255Z,16.20
2019-04-14T19:06:13.907Z,16.20
2019-04-14T19:08:43.701Z,16.10
2019-04-14T19:11:15.033Z,16.00
2019-04-14T19:13:46.382Z,15.90
2019-04-14T19:16:17.736Z,15.90
2019-04-14T19:18:54.956Z,15.80
2019-04-14T19:21:26.280Z,15.90
2019-04-14T19:23:56.054Z,15.90
2019-04-14T19:26:25.769Z,15.80
2019-04-14T19:28:55.591Z,15.80
2019-04-14T19:31:25.353Z,15.70
2019-04-14T19:33:55.081Z,15.70
2019-04-14T19:36:24.878Z,15.70
2019-04-14T19:38:54.512Z,15.60
2019-04-14T19:41:24.140Z,15.60
2019-04-14T19:43:53.779Z,15.60
2019-04-14T19:46:23.663Z,15.50
2019-04-14T19:48:53.360Z,15.30
2019-04-14T19:51:23.070Z,15.30
2019-04-14T19:53:52.775Z,15.30
2019-04-14T19:56:22.453Z,15.20
2019-04-14T19:58:52.200Z,15.20
2019-04-14T20:01:21.849Z,15.20
2019-04-14T20:03:51.606Z,15.20
2019-04-14T20:06:21.304Z,15.20
2019-04-14T20:08:51.024Z,15.00
2019-04-14T20:11:20.745Z,14.90
2019-04-14T20:13:50.487Z,14.90
2019-04-14T20:16:27.615Z,15.00
2019-04-14T20:19:09.893Z,14.90
2019-04-14T20:21:48.790Z,14.80
2019-04-14T20:24:25.735Z,14.80
2019-04-14T20:26:56.977Z,14.60
2019-04-14T20:29:30.884Z,14.60
2019-04-14T20:32:04.906Z,14.60
2019-04-14T20:34:34.631Z,14.60
2019-04-14T20:37:04.480Z,14.80
2019-04-14T20:39:34.359Z,14.80
2019-04-14T20:42:04.475Z,14.80
2019-04-14T20:44:34.682Z,14.70
2019-04-14T20:47:05.355Z,14.70
2019-04-14T20:49:35.091Z,14.80
2019-04-14T20:52:04.934Z,14.60
2019-04-14T20:54:34.636Z,14.60
2019-04-14T20:57:04.417Z,14.60
2019-04-14T20:59:34.062Z,14.50
2019-04-14T21:02:05.441Z,14.40
2019-04-14T21:04:48.959Z,14.30
2019-04-14T21:07:20.264Z,14.20
2019-04-14T21:09:51.662Z,14.10
2019-04-14T21:12:23.007Z,14.10
2019-04-14T21:14:57.227Z,14.10
2019-04-14T21:17:28.526Z,14.00
2019-04-14T21:19:59.879Z,13.90
2019-04-14T21:22:31.156Z,13.70
2019-04-14T21:25:09.037Z,13.60
2019-04-14T21:27:56.810Z,13.60
2019-04-14T21:30:37.569Z,13.70
2019-04-14T21:33:09.214Z,13.70
2019-04-14T21:35:43.220Z,13.60
2019-04-14T21:38:33.279Z,13.60
2019-04-14T21:41:07.412Z,13.40
2019-04-14T21:43:38.742Z,13.60
2019-04-14T21:46:08.490Z,13.70
2019-04-14T21:48:38.175Z,13.70
2019-04-14T21:51:08.033Z,13.80
2019-04-14T21:53:37.836Z,13.80
2019-04-14T21:56:13.566Z,13.80
2019-04-14T21:58:40.622Z,13.60
2019-04-14T22:01:40.387Z,13.50
2019-04-14T22:04:28.570Z,13.40
2019-04-14T22:07:06.211Z,13.50
2019-04-14T22:09:40.983Z,13.40
2019-04-14T22:12:11.124Z,13.30
2019-04-14T22:14:42.328Z,13.30
2019-04-14T22:17:12.536Z,13.40
2019-04-14T22:19:42.668Z,13.30
2019-04-14T22:22:12.770Z,13.30
2019-04-14T22:24:43.025Z,13.30
2019-04-14T22:27:13.821Z,13.20
2019-04-14T22:29:43.864Z,13.20
2019-04-14T22:32:13.782Z,13.00
2019-04-14T22:34:44.123Z,12.90
2019-04-14T22:37:14.551Z,12.90
2019-04-14T22:39:44.430Z,12.80
2019-04-14T22:42:14.649Z,12.70
2019-04-14T22:44:44.725Z,12.70
2019-04-14T22:47:15.015Z,12.60
2019-04-14T22:49:45.093Z,12.50
2019-04-14T22:52:15.402Z,12.50
2019-04-14T22:54:45.430Z,12.50
2019-04-14T22:57:15.590Z,12.50
2019-04-14T22:59:45.669Z,12.30
2019-04-14T23:02:29.278Z,12.20
2019-04-14T23:05:13.077Z,12.20
2019-04-14T23:07:53.486Z,12.20
2019-04-14T23:10:41.501Z,12.10
2019-04-14T23:13:16.038Z,12.00
2019-04-14T23:16:04.111Z,11.90
2019-04-14T23:18:35.769Z,12.00
2019-04-14T23:21:16.773Z,12.00
2019-04-14T23:23:51.495Z,12.00
2019-04-14T23:26:21.767Z,11.90
2019-04-14T23:28:51.922Z,11.80
2019-04-14T23:31:21.886Z,11.90
2019-04-14T23:33:52.093Z,11.80
2019-04-14T23:36:22.161Z,11.80
2019-04-14T23:38:52.169Z,11.70
2019-04-14T23:41:22.120Z,11.70
2019-04-14T23:43:52.337Z,11.70
2019-04-14T23:46:22.771Z,11.70
2019-04-14T23:48:52.870Z,11.70
2019-04-14T23:51:23.290Z,11.80
2019-04-14T23:53:53.730Z,11.80
2019-04-14T23:56:23.745Z,11.80
2019-04-14T23:58:53.837Z,11.80
